Time;durP1;ratioP1;P1;durP2;ratioP2;P2;SDS_P1;SDS_P2;PMS_P1;PMS_P2;Temp;Humidity;BMP_temperature;BMP_pressure;BME280_temperature;BME280_humidity;BME280_pressure;Samples;Min_cycle;Max_cycle;Signal;HPM_P1;HPM_P2
2021/10/26 00:00:46;;;;;;;12.70;6.40;;;;;;;;;;5046339;28;20036;-64
2021/10/26 00:03:12;;;;;;;12.45;6.53;;;;;;;;;;5046526;28;20464;-64
2021/10/26 00:05:38;;;;;;;14.18;6.85;;;;;;;;;;5045840;28;20049;-64
2021/10/26 00:08:04;;;;;;;12.82;6.05;;;;;;;;;;5043429;28;20107;-64
2021/10/26 00:10:30;;;;;;;13.45;6.90;;;;;;;;;;5044564;28;20402;-63
2021/10/26 00:12:57;;;;;;;14.48;6.55;;;;;;;;;;5044635;28;20059;-63
2021/10/26 00:15:23;;;;;;;16.73;6.75;;;;;;;;;;5041915;28;20040;-63
2021/10/26 00:17:49;;;;;;;15.40;7.40;;;;;;;;;;5043020;28;20056;-63
2021/10/26 00:20:15;;;;;;;18.08;6.88;;;;;;;;;;5042532;28;20025;-63
2021/10/26 00:22:41;;;;;;;10.75;6.03;;;;;;;;;;5048145;28;20025;-63
2021/10/26 00:25:07;;;;;;;12.77;6.07;;;;;;;;;;5045135;28;20403;-64
2021/10/26 00:27:33;;;;;;;13.45;7.05;;;;;;;;;;5039242;28;20025;-63
2021/10/26 00:29:59;;;;;;;14.52;6.43;;;;;;;;;;5050441;28;20486;-63
2021/10/26 00:32:25;;;;;;;13.13;6.60;;;;;;;;;;5045734;28;20552;-64
2021/10/26 00:34:51;;;;;;;11.93;6.30;;;;;;;;;;5036299;28;20017;-63
2021/10/26 00:37:18;;;;;;;15.00;6.00;;;;;;;;;;5044501;28;20037;-64
2021/10/26 00:39:44;;;;;;;14.02;7.05;;;;;;;;;;5042035;28;20026;-63
2021/10/26 00:42:11;;;;;;;11.60;6.40;;;;;;;;;;5046190;28;20037;-64
2021/10/26 00:44:37;;;;;;;14.55;6.43;;;;;;;;;;5041852;28;20375;-64
2021/10/26 00:47:03;;;;;;;17.40;7.50;;;;;;;;;;5046336;28;20021;-64
2021/10/26 00:49:29;;;;;;;11.90;6.55;;;;;;;;;;5040429;28;20041;-64
2021/10/26 00:51:56;;;;;;;11.32;6.47;;;;;;;;;;5046272;28;20024;-64
2021/10/26 00:54:26;;;;;;;16.15;6.72;;;;;;;;;;5049373;28;20048;-64
2021/10/26 00:56:53;;;;;;;11.00;6.57;;;;;;;;;;5042388;28;20145;-64
2021/10/26 00:59:19;;;;;;;16.38;6.78;;;;;;;;;;5045504;28;20025;-63
2021/10/26 01:01:45;;;;;;;19.40;6.60;;;;;;;;;;5042953;28;20021;-64
2021/10/26 01:04:11;;;;;;;11.52;6.00;;;;;;;;;;5049701;28;20519;-64
2021/10/26 01:06:38;;;;;;;14.95;6.95;;;;;;;;;;5043444;28;20017;-63
2021/10/26 01:09:05;;;;;;;10.38;5.72;;;;;;;;;;5048329;28;20476;-64
2021/10/26 01:11:31;;;;;;;10.55;5.88;;;;;;;;;;5047703;28;20037;-63
2021/10/26 01:13:58;;;;;;;13.63;6.95;;;;;;;;;;5045943;28;20026;-64
2021/10/26 01:16:25;;;;;;;16.27;6.07;;;;;;;;;;5047544;28;20043;-64
2021/10/26 01:18:52;;;;;;;14.20;6.68;;;;;;;;;;5048971;28;20484;-63
2021/10/26 01:21:18;;;;;;;14.25;6.13;;;;;;;;;;5047339;28;20767;-64
2021/10/26 01:23:44;;;;;;;12.48;6.40;;;;;;;;;;5041043;28;20014;-64
2021/10/26 01:26:10;;;;;;;12.45;6.30;;;;;;;;;;5045316;28;20484;-64
2021/10/26 01:28:37;;;;;;;13.38;6.38;;;;;;;;;;5042455;28;20036;-63
2021/10/26 01:31:03;;;;;;;16.92;6.18;;;;;;;;;;5046888;28;20025;-64
2021/10/26 01:33:29;;;;;;;15.77;6.65;;;;;;;;;;5043470;28;20043;-63
2021/10/26 01:35:55;;;;;;;14.30;6.32;;;;;;;;;;5053035;28;20496;-64
2021/10/26 01:38:25;;;;;;;10.15;5.88;;;;;;;;;;5048993;28;20029;-64
2021/10/26 01:40:51;;;;;;;13.70;6.60;;;;;;;;;;5049570;28;20075;-63
2021/10/26 01:43:18;;;;;;;12.57;6.65;;;;;;;;;;5047816;28;20120;-63
2021/10/26 01:45:44;;;;;;;16.65;6.00;;;;;;;;;;5049945;28;20487;-63
2021/10/26 01:48:10;;;;;;;11.98;6.60;;;;;;;;;;5044216;28;20060;-64
2021/10/26 01:50:36;;;;;;;13.15;6.82;;;;;;;;;;5052451;28;20045;-63
2021/10/26 01:53:02;;;;;;;10.32;5.90;;;;;;;;;;5055258;28;20484;-64
2021/10/26 01:55:28;;;;;;;13.55;5.90;;;;;;;;;;5055172;28;20043;-63
2021/10/26 01:57:55;;;;;;;11.00;6.15;;;;;;;;;;5055321;28;20021;-64
2021/10/26 02:00:21;;;;;;;13.52;6.70;;;;;;;;;;5055242;28;20029;-63
2021/10/26 02:02:48;;;;;;;15.15;6.72;;;;;;;;;;5055078;28;20066;-64
2021/10/26 02:05:15;;;;;;;12.15;6.07;;;;;;;;;;5047741;28;20013;-64
2021/10/26 02:07:41;;;;;;;13.63;6.28;;;;;;;;;;5040010;28;20053;-64
2021/10/26 02:10:08;;;;;;;10.80;5.63;;;;;;;;;;5048499;28;20021;-64
2021/10/26 02:12:34;;;;;;;11.73;6.03;;;;;;;;;;5052042;28;20032;-64
2021/10/26 02:15:01;;;;;;;11.57;5.93;;;;;;;;;;5052199;28;20345;-64
2021/10/26 02:17:27;;;;;;;12.32;6.40;;;;;;;;;;5049286;28;20021;-64
2021/10/26 02:19:53;;;;;;;10.38;5.82;;;;;;;;;;5051069;28;20579;-64
2021/10/26 02:22:19;;;;;;;11.30;6.40;;;;;;;;;;5043802;28;20369;-62
2021/10/26 02:24:45;;;;;;;14.13;6.05;;;;;;;;;;5046575;28;20522;-62
2021/10/26 02:27:12;;;;;;;10.32;6.20;;;;;;;;;;5051952;28;20098;-62
2021/10/26 02:29:38;;;;;;;10.00;5.63;;;;;;;;;;5050773;28;20034;-62
2021/10/26 02:32:05;;;;;;;10.82;6.28;;;;;;;;;;5048396;28;20025;-62
2021/10/26 02:34:31;;;;;;;13.77;6.32;;;;;;;;;;5049482;28;20036;-62
2021/10/26 02:36:58;;;;;;;10.40;5.65;;;;;;;;;;5042554;28;20080;-62
2021/10/26 02:39:24;;;;;;;14.52;6.40;;;;;;;;;;5043977;28;20120;-62
2021/10/26 02:41:50;;;;;;;11.27;6.22;;;;;;;;;;5044765;28;20021;-63
2021/10/26 02:44:17;;;;;;;11.73;6.20;;;;;;;;;;5046441;28;20598;-62
2021/10/26 02:46:43;;;;;;;11.77;5.53;;;;;;;;;;5041951;28;20017;-62
2021/10/26 02:49:09;;;;;;;13.18;6.47;;;;;;;;;;5046379;28;20025;-62
2021/10/26 02:51:36;;;;;;;11.55;6.07;;;;;;;;;;5054388;28;20488;-62
2021/10/26 02:54:02;;;;;;;11.15;6.22;;;;;;;;;;5054092;28;20027;-63
2021/10/26 02:56:28;;;;;;;15.75;6.00;;;;;;;;;;5053817;28;20484;-63
2021/10/26 02:58:54;;;;;;;11.40;6.20;;;;;;;;;;5049029;28;20028;-62
2021/10/26 03:01:20;;;;;;;13.68;6.20;;;;;;;;;;5048827;28;20079;-63
2021/10/26 03:03:46;;;;;;;13.88;6.03;;;;;;;;;;5050518;28;20048;-62
2021/10/26 03:06:13;;;;;;;14.07;5.85;;;;;;;;;;5047214;28;20028;-63
2021/10/26 03:08:39;;;;;;;10.02;5.60;;;;;;;;;;5048933;28;20016;-62
2021/10/26 03:11:05;;;;;;;11.73;6.30;;;;;;;;;;5049328;28;20033;-62
2021/10/26 03:13:32;;;;;;;10.80;5.55;;;;;;;;;;5047411;28;20051;-62
2021/10/26 03:15:59;;;;;;;13.30;5.78;;;;;;;;;;5043955;28;20061;-61
2021/10/26 03:18:25;;;;;;;12.63;5.50;;;;;;;;;;5040030;28;20021;-62
2021/10/26 03:20:51;;;;;;;12.60;6.22;;;;;;;;;;5041056;28;20074;-62
2021/10/26 03:23:36;;;;;;;16.80;6.72;;;;;;;;;;5044476;28;20025;-63
2021/10/26 03:26:02;;;;;;;12.50;6.25;;;;;;;;;;5050809;28;20025;-62
2021/10/26 03:28:28;;;;;;;13.23;6.47;;;;;;;;;;5046593;28;20079;-62
2021/10/26 03:30:54;;;;;;;14.70;6.43;;;;;;;;;;5047247;28;20043;-62
2021/10/26 03:33:21;;;;;;;13.45;6.18;;;;;;;;;;5051327;28;20040;-62
2021/10/26 03:35:47;;;;;;;12.45;5.45;;;;;;;;;;5046904;28;20040;-62
2021/10/26 03:38:13;;;;;;;11.23;6.35;;;;;;;;;;5045989;28;20029;-62
2021/10/26 03:40:39;;;;;;;9.13;5.68;;;;;;;;;;5051542;28;20032;-62
2021/10/26 03:43:06;;;;;;;11.40;5.85;;;;;;;;;;5045649;28;20404;-62
2021/10/26 03:45:32;;;;;;;11.63;6.47;;;;;;;;;;5047798;28;20032;-62
2021/10/26 03:47:58;;;;;;;11.85;6.00;;;;;;;;;;5050142;28;20039;-62
2021/10/26 03:50:24;;;;;;;11.32;5.30;;;;;;;;;;5045454;28;20148;-62
2021/10/26 03:52:50;;;;;;;10.88;5.72;;;;;;;;;;5046076;28;20032;-62
2021/10/26 03:55:16;;;;;;;13.80;6.28;;;;;;;;;;5046464;28;20028;-62
2021/10/26 03:57:42;;;;;;;9.38;5.47;;;;;;;;;;5043791;28;20028;-62
2021/10/26 04:00:09;;;;;;;10.65;5.95;;;;;;;;;;5041859;28;20029;-62
2021/10/26 04:02:39;;;;;;;15.68;6.28;;;;;;;;;;5043613;28;20037;-62
2021/10/26 04:05:16;;;;;;;10.52;5.00;;;;;;;;;;5038345;28;20064;-63
2021/10/26 04:08:08;;;;;;;15.65;6.07;;;;;;;;;;5040932;28;20100;-62
2021/10/26 04:10:51;;;;;;;17.92;5.95;;;;;;;;;;5041825;28;20498;-62
2021/10/26 04:13:18;;;;;;;9.75;5.75;;;;;;;;;;5045336;28;20549;-62
2021/10/26 04:15:44;;;;;;;10.38;5.93;;;;;;;;;;5042829;28;20037;-62
2021/10/26 04:18:10;;;;;;;11.27;5.75;;;;;;;;;;5046243;28;20114;-63
2021/10/26 04:20:36;;;;;;;15.85;5.55;;;;;;;;;;5044438;28;20032;-63
2021/10/26 04:23:02;;;;;;;12.88;5.95;;;;;;;;;;5045617;28;20024;-63
2021/10/26 04:25:28;;;;;;;11.10;6.00;;;;;;;;;;5046209;28;20029;-62
2021/10/26 04:27:54;;;;;;;9.60;5.55;;;;;;;;;;5050753;28;20024;-63
2021/10/26 04:30:21;;;;;;;12.70;5.40;;;;;;;;;;5040192;28;20032;-62
2021/10/26 04:32:48;;;;;;;13.20;5.85;;;;;;;;;;5044875;28;20104;-62
2021/10/26 04:35:14;;;;;;;10.65;5.60;;;;;;;;;;5045169;28;20021;-62
2021/10/26 04:37:41;;;;;;;10.13;5.88;;;;;;;;;;5042566;28;20148;-63
2021/10/26 04:40:07;;;;;;;14.25;6.57;;;;;;;;;;5044119;28;20457;-62
2021/10/26 04:42:34;;;;;;;10.48;5.78;;;;;;;;;;5039558;28;20112;-63
2021/10/26 04:45:00;;;;;;;9.93;5.03;;;;;;;;;;5044926;28;20028;-62
2021/10/26 04:47:27;;;;;;;10.25;5.68;;;;;;;;;;5044739;28;20032;-62
2021/10/26 04:49:53;;;;;;;9.32;5.38;;;;;;;;;;5044783;28;20055;-63
2021/10/26 04:52:19;;;;;;;11.85;5.72;;;;;;;;;;5043652;28;20676;-62
2021/10/26 04:54:46;;;;;;;8.60;5.18;;;;;;;;;;5043571;28;20393;-63
2021/10/26 04:57:12;;;;;;;10.65;6.07;;;;;;;;;;5044835;28;20033;-63
2021/10/26 04:59:38;;;;;;;14.00;5.60;;;;;;;;;;5044426;28;20017;-63
2021/10/26 05:02:04;;;;;;;11.40;5.50;;;;;;;;;;5042335;28;20112;-63
2021/10/26 05:04:30;;;;;;;12.35;5.82;;;;;;;;;;5043759;28;20036;-62
2021/10/26 05:06:57;;;;;;;9.43;5.15;;;;;;;;;;5044303;28;20094;-62
2021/10/26 05:09:23;;;;;;;10.75;5.97;;;;;;;;;;5045006;28;20031;-62
2021/10/26 05:11:49;;;;;;;9.77;5.82;;;;;;;;;;5044860;28;20091;-63
2021/10/26 05:14:15;;;;;;;12.18;6.32;;;;;;;;;;5044029;28;20064;-63
2021/10/26 05:16:43;;;;;;;9.77;5.55;;;;;;;;;;5043514;28;20044;-63
2021/10/26 05:19:10;;;;;;;11.18;5.47;;;;;;;;;;5042149;28;20070;-62
2021/10/26 05:21:36;;;;;;;9.63;5.90;;;;;;;;;;5040452;28;20534;-63
2021/10/26 05:24:02;;;;;;;9.25;5.10;;;;;;;;;;5041901;28;20025;-63
2021/10/26 05:26:28;;;;;;;12.68;6.07;;;;;;;;;;5042713;28;20392;-63
2021/10/26 05:28:54;;;;;;;11.02;5.95;;;;;;;;;;5044440;28;20052;-63
2021/10/26 05:31:20;;;;;;;9.75;5.88;;;;;;;;;;5039909;28;20036;-63
2021/10/26 05:33:47;;;;;;;9.02;5.47;;;;;;;;;;5036834;28;20033;-63
2021/10/26 05:36:14;;;;;;;10.35;5.97;;;;;;;;;;5044033;28;20170;-62
2021/10/26 05:38:40;;;;;;;11.63;6.22;;;;;;;;;;5040340;28;20100;-63
2021/10/26 05:41:06;;;;;;;12.70;5.78;;;;;;;;;;5042062;28;20021;-63
2021/10/26 05:43:33;;;;;;;11.25;6.03;;;;;;;;;;5043306;28;20072;-62
2021/10/26 05:45:59;;;;;;;12.60;6.47;;;;;;;;;;5043290;28;20017;-62
2021/10/26 05:48:25;;;;;;;10.07;5.60;;;;;;;;;;5039985;28;20037;-62
2021/10/26 05:50:51;;;;;;;9.68;5.22;;;;;;;;;;5041603;28;20451;-62
2021/10/26 05:53:17;;;;;;;13.68;5.70;;;;;;;;;;5041763;28;20065;-62
2021/10/26 05:55:43;;;;;;;12.38;5.68;;;;;;;;;;5043134;28;20140;-61
2021/10/26 05:58:13;;;;;;;13.65;6.40;;;;;;;;;;5041107;28;20060;-62
2021/10/26 06:00:40;;;;;;;11.82;6.07;;;;;;;;;;5041516;28;20033;-62
2021/10/26 06:03:06;;;;;;;12.50;6.30;;;;;;;;;;5041352;28;20397;-62
2021/10/26 06:05:32;;;;;;;13.27;6.05;;;;;;;;;;5044595;28;20021;-62
2021/10/26 06:07:59;;;;;;;11.88;6.13;;;;;;;;;;5035539;28;20029;-62
2021/10/26 06:10:26;;;;;;;10.85;5.47;;;;;;;;;;5043006;28;20100;-62
2021/10/26 06:12:57;;;;;;;10.80;5.80;;;;;;;;;;5044149;28;20025;-62
2021/10/26 06:15:24;;;;;;;12.00;6.10;;;;;;;;;;5042159;28;20025;-62
2021/10/26 06:17:50;;;;;;;10.00;5.75;;;;;;;;;;5041674;28;20025;-63
2021/10/26 06:20:16;;;;;;;10.20;5.93;;;;;;;;;;5043506;28;20069;-63
2021/10/26 06:22:43;;;;;;;14.57;6.22;;;;;;;;;;5045852;28;20031;-64
2021/10/26 06:25:09;;;;;;;11.85;5.85;;;;;;;;;;5045020;28;20029;-62
2021/10/26 06:27:35;;;;;;;14.52;6.75;;;;;;;;;;5045834;28;20121;-62
2021/10/26 06:30:01;;;;;;;11.02;5.80;;;;;;;;;;5046286;28;20021;-63
2021/10/26 06:32:30;;;;;;;12.60;5.43;;;;;;;;;;5045436;28;20021;-63
2021/10/26 06:34:56;;;;;;;10.55;5.80;;;;;;;;;;5045708;28;20025;-63
2021/10/26 06:37:23;;;;;;;12.27;6.13;;;;;;;;;;5041150;28;20095;-62
2021/10/26 06:39:54;;;;;;;15.27;6.15;;;;;;;;;;5041394;28;20413;-63
2021/10/26 06:42:21;;;;;;;14.10;5.68;;;;;;;;;;5042305;28;20063;-62
2021/10/26 06:44:47;;;;;;;11.23;6.18;;;;;;;;;;5044144;28;20021;-62
2021/10/26 06:47:14;;;;;;;10.63;6.05;;;;;;;;;;5043926;28;20028;-62
2021/10/26 06:49:40;;;;;;;11.10;5.65;;;;;;;;;;5046127;28;20040;-62
2021/10/26 06:52:07;;;;;;;11.60;6.18;;;;;;;;;;5044637;28;20024;-62
2021/10/26 06:54:34;;;;;;;13.27;6.13;;;;;;;;;;5044652;28;20056;-63
2021/10/26 06:57:00;;;;;;;30.65;6.65;;;;;;;;;;5044115;28;20117;-63
2021/10/26 06:59:26;;;;;;;14.63;6.38;;;;;;;;;;5044291;28;20032;-63
2021/10/26 07:01:52;;;;;;;13.00;5.75;;;;;;;;;;5044321;28;20028;-63
2021/10/26 07:04:19;;;;;;;13.25;5.45;;;;;;;;;;5044435;28;20025;-63
2021/10/26 07:06:45;;;;;;;11.43;5.80;;;;;;;;;;5046620;28;20102;-63
2021/10/26 07:09:11;;;;;;;12.85;5.43;;;;;;;;;;5043849;28;20033;-63
2021/10/26 07:11:37;;;;;;;11.07;5.97;;;;;;;;;;5046225;28;20033;-63
2021/10/26 07:14:04;;;;;;;9.48;5.20;;;;;;;;;;5044953;28;20009;-63
2021/10/26 07:16:30;;;;;;;8.65;4.68;;;;;;;;;;5043540;28;20037;-63
2021/10/26 07:18:57;;;;;;;13.98;4.22;;;;;;;;;;5045816;28;20453;-63
2021/10/26 07:21:23;;;;;;;9.50;4.53;;;;;;;;;;5046174;28;20017;-63
2021/10/26 07:23:49;;;;;;;9.18;4.15;;;;;;;;;;5045142;28;20049;-63
2021/10/26 07:26:15;;;;;;;9.88;4.80;;;;;;;;;;5042930;28;20036;-64
2021/10/26 07:28:41;;;;;;;7.93;4.25;;;;;;;;;;5044690;28;20118;-64
2021/10/26 07:31:07;;;;;;;9.73;4.80;;;;;;;;;;5047321;28;20032;-64
2021/10/26 07:33:35;;;;;;;10.43;5.90;;;;;;;;;;5045669;28;20074;-64
2021/10/26 07:36:05;;;;;;;10.45;4.72;;;;;;;;;;5045416;28;20079;-63
2021/10/26 07:38:36;;;;;;;10.98;5.75;;;;;;;;;;5046182;28;20108;-63
2021/10/26 07:41:02;;;;;;;11.68;5.22;;;;;;;;;;5043150;28;20024;-64
2021/10/26 07:43:33;;;;;;;9.40;5.28;;;;;;;;;;5046429;28;20868;-64
2021/10/26 07:45:59;;;;;;;9.13;4.88;;;;;;;;;;5046823;28;20029;-64
2021/10/26 07:48:25;;;;;;;10.52;5.40;;;;;;;;;;5045679;28;20534;-64
2021/10/26 07:50:57;;;;;;;10.85;4.80;;;;;;;;;;5045548;28;20057;-64
2021/10/26 07:53:23;;;;;;;9.32;5.00;;;;;;;;;;5044813;28;20567;-64
2021/10/26 07:55:51;;;;;;;9.23;4.72;;;;;;;;;;5042892;28;20033;-64
2021/10/26 07:58:17;;;;;;;8.48;4.55;;;;;;;;;;5046361;28;20083;-64
2021/10/26 08:00:43;;;;;;;11.32;4.50;;;;;;;;;;5044775;28;20031;-64
2021/10/26 08:03:09;;;;;;;11.65;6.13;;;;;;;;;;5041350;28;20554;-63
2021/10/26 08:05:35;;;;;;;12.07;6.10;;;;;;;;;;5041897;28;20424;-63
2021/10/26 08:08:01;;;;;;;12.57;6.68;;;;;;;;;;5039245;28;20504;-64
2021/10/26 08:10:28;;;;;;;11.82;6.15;;;;;;;;;;5046084;28;20075;-64
2021/10/26 08:12:54;;;;;;;12.70;5.60;;;;;;;;;;5043681;28;20041;-63
2021/10/26 08:15:21;;;;;;;11.43;5.40;;;;;;;;;;5032702;28;20026;-64
2021/10/26 08:17:47;;;;;;;11.35;5.07;;;;;;;;;;5032552;28;20063;-65
2021/10/26 08:20:13;;;;;;;10.27;5.25;;;;;;;;;;5032549;28;20053;-65
2021/10/26 08:22:40;;;;;;;10.23;5.60;;;;;;;;;;5032644;28;20032;-64
2021/10/26 08:25:23;;;;;;;10.18;5.20;;;;;;;;;;5032372;28;20020;-64
2021/10/26 08:27:52;;;;;;;10.73;5.50;;;;;;;;;;5032354;28;20071;-65
2021/10/26 08:30:30;;;;;;;12.63;4.57;;;;;;;;;;5032181;28;20587;-64
2021/10/26 08:35:38;;;;;;;9.57;4.95;;;;;;;;;;5032483;28;20112;-65
2021/10/26 08:38:05;;;;;;;14.32;5.10;;;;;;;;;;5039538;28;20168;-64
2021/10/26 08:40:34;;;;;;;13.57;5.13;;;;;;;;;;5046003;28;20028;-65
2021/10/26 08:43:04;;;;;;;17.88;5.25;;;;;;;;;;5051999;28;20532;-65
2021/10/26 08:45:31;;;;;;;14.23;4.80;;;;;;;;;;5051309;28;20060;-65
2021/10/26 08:47:58;;;;;;;13.75;4.80;;;;;;;;;;5052005;28;20023;-65
2021/10/26 08:50:26;;;;;;;11.90;4.78;;;;;;;;;;5052327;28;20116;-65
2021/10/26 08:52:53;;;;;;;11.45;4.63;;;;;;;;;;5052411;28;20024;-65
2021/10/26 08:55:19;;;;;;;17.48;4.60;;;;;;;;;;5050821;28;20033;-65
2021/10/26 08:57:45;;;;;;;15.63;4.78;;;;;;;;;;5052106;28;20029;-64
2021/10/26 09:00:15;;;;;;;14.98;5.85;;;;;;;;;;5050624;28;20025;-64
2021/10/26 09:02:43;;;;;;;17.95;4.50;;;;;;;;;;5035500;28;20032;-64
2021/10/26 09:05:13;;;;;;;14.27;4.18;;;;;;;;;;5031764;28;20061;-63
2021/10/26 09:07:39;;;;;;;13.50;4.38;;;;;;;;;;5051902;28;20021;-64
2021/10/26 09:10:10;;;;;;;13.05;4.57;;;;;;;;;;5051961;28;20082;-64
2021/10/26 09:17:54;;;;;;;12.70;5.20;;;;;;;;;;5053291;28;20461;-65
2021/10/26 09:20:22;;;;;;;17.23;5.40;;;;;;;;;;5067937;28;20021;-64
2021/10/26 09:22:52;;;;;;;21.42;5.50;;;;;;;;;;5051684;28;20025;-64
2021/10/26 09:25:20;;;;;;;13.93;5.22;;;;;;;;;;5051668;28;20024;-65
2021/10/26 09:27:46;;;;;;;18.33;5.68;;;;;;;;;;5050847;28;20156;-64
2021/10/26 09:30:13;;;;;;;27.38;6.00;;;;;;;;;;5050479;28;20435;-64
2021/10/26 09:32:47;;;;;;;27.10;5.88;;;;;;;;;;5049144;28;20112;-64
2021/10/26 09:35:17;;;;;;;21.67;5.07;;;;;;;;;;5050814;28;20021;-64
2021/10/26 09:37:45;;;;;;;12.68;4.72;;;;;;;;;;5051270;28;20035;-64
2021/10/26 09:40:12;;;;;;;18.25;4.88;;;;;;;;;;5048760;28;20388;-65
2021/10/26 09:42:39;;;;;;;19.13;5.35;;;;;;;;;;5052118;28;20040;-64
2021/10/26 09:45:06;;;;;;;12.77;5.20;;;;;;;;;;5051429;28;20021;-64
2021/10/26 09:47:34;;;;;;;12.23;4.75;;;;;;;;;;5051345;28;20017;-65
2021/10/26 09:50:02;;;;;;;13.15;4.20;;;;;;;;;;5050971;28;20052;-65
2021/10/26 09:52:28;;;;;;;11.48;4.43;;;;;;;;;;5042809;28;20021;-64
2021/10/26 09:55:23;;;;;;;12.07;4.63;;;;;;;;;;5031079;28;20071;-65
2021/10/26 09:57:50;;;;;;;10.07;3.92;;;;;;;;;;5036662;28;20074;-64
2021/10/26 10:00:24;;;;;;;11.30;4.72;;;;;;;;;;5055224;28;20029;-65
2021/10/26 10:03:07;;;;;;;11.85;4.68;;;;;;;;;;5055017;28;20017;-65
2021/10/26 10:05:37;;;;;;;10.68;4.75;;;;;;;;;;5055012;28;20051;-64
2021/10/26 10:08:21;;;;;;;10.93;4.15;;;;;;;;;;5052272;28;20036;-64
2021/10/26 10:10:51;;;;;;;13.77;4.65;;;;;;;;;;5043302;28;20102;-64
2021/10/26 10:13:17;;;;;;;12.18;4.47;;;;;;;;;;5054813;28;20025;-64
2021/10/26 10:15:47;;;;;;;8.82;4.57;;;;;;;;;;5054768;28;20096;-64
2021/10/26 10:18:16;;;;;;;9.35;3.97;;;;;;;;;;5054865;28;20033;-64
2021/10/26 10:20:42;;;;;;;10.10;4.65;;;;;;;;;;5054885;28;20024;-65
2021/10/26 10:23:09;;;;;;;11.43;4.43;;;;;;;;;;5054800;28;20021;-64
2021/10/26 10:25:35;;;;;;;10.65;4.53;;;;;;;;;;5054675;28;20104;-64
2021/10/26 10:28:02;;;;;;;9.05;4.13;;;;;;;;;;5053280;28;20028;-64
2021/10/26 10:30:28;;;;;;;8.88;4.40;;;;;;;;;;5054811;28;20031;-64
2021/10/26 10:32:54;;;;;;;7.07;4.00;;;;;;;;;;5054662;28;20480;-64
2021/10/26 10:35:21;;;;;;;12.43;4.60;;;;;;;;;;5054296;28;20112;-64
2021/10/26 10:37:48;;;;;;;7.97;3.92;;;;;;;;;;5054345;28;20021;-64
2021/10/26 10:40:22;;;;;;;10.82;4.20;;;;;;;;;;5054361;28;20396;-64
2021/10/26 10:42:48;;;;;;;10.02;4.35;;;;;;;;;;5054433;28;20021;-65
2021/10/26 10:45:23;;;;;;;9.23;3.60;;;;;;;;;;5054551;28;20025;-64
2021/10/26 10:47:50;;;;;;;11.02;4.10;;;;;;;;;;5054385;28;20025;-64
2021/10/26 10:50:21;;;;;;;10.02;4.05;;;;;;;;;;5054028;28;20052;-64
2021/10/26 10:53:06;;;;;;;8.57;4.20;;;;;;;;;;5054214;28;20025;-64
2021/10/26 10:55:33;;;;;;;8.07;3.42;;;;;;;;;;5054132;28;20762;-64
2021/10/26 10:58:18;;;;;;;8.02;3.42;;;;;;;;;;5054029;28;20532;-64
2021/10/26 11:00:44;;;;;;;8.98;3.53;;;;;;;;;;5054134;28;20048;-64
2021/10/26 11:03:28;;;;;;;7.70;3.42;;;;;;;;;;5054147;28;20025;-64
2021/10/26 11:05:54;;;;;;;9.82;3.40;;;;;;;;;;5052876;28;20021;-64
2021/10/26 11:08:40;;;;;;;11.63;3.85;;;;;;;;;;5053365;28;20120;-64
2021/10/26 11:11:06;;;;;;;7.00;3.22;;;;;;;;;;5053864;28;20025;-64
2021/10/26 11:13:35;;;;;;;6.15;3.25;;;;;;;;;;5043879;28;20056;-64
2021/10/26 11:16:09;;;;;;;9.77;3.67;;;;;;;;;;5033622;28;20021;-64
2021/10/26 11:18:45;;;;;;;9.10;3.45;;;;;;;;;;5033916;28;20032;-64
2021/10/26 11:21:24;;;;;;;7.53;3.40;;;;;;;;;;5033773;28;20021;-63
2021/10/26 11:24:01;;;;;;;7.45;3.55;;;;;;;;;;5033819;28;20017;-64
2021/10/26 11:26:36;;;;;;;7.60;3.33;;;;;;;;;;5033641;28;20017;-63
2021/10/26 11:29:04;;;;;;;6.13;3.17;;;;;;;;;;5033427;28;20048;-63
2021/10/26 11:31:31;;;;;;;9.15;3.50;;;;;;;;;;5033379;28;20014;-64
2021/10/26 11:34:05;;;;;;;6.68;2.95;;;;;;;;;;5033539;28;20029;-63
2021/10/26 11:36:33;;;;;;;6.55;3.17;;;;;;;;;;5033445;28;20033;-64
2021/10/26 11:39:01;;;;;;;6.72;3.15;;;;;;;;;;5032924;28;20036;-63
2021/10/26 11:41:28;;;;;;;6.22;3.28;;;;;;;;;;5036281;28;20021;-65
2021/10/26 11:43:59;;;;;;;7.68;3.15;;;;;;;;;;5033209;28;20026;-64
2021/10/26 11:46:25;;;;;;;7.93;3.45;;;;;;;;;;5033437;28;20022;-63
2021/10/26 11:48:52;;;;;;;5.85;2.85;;;;;;;;;;5033277;28;20017;-65
2021/10/26 11:51:27;;;;;;;8.73;3.25;;;;;;;;;;5033294;28;20095;-64
2021/10/26 11:54:02;;;;;;;7.10;3.35;;;;;;;;;;5032926;28;20022;-64
2021/10/26 11:56:35;;;;;;;7.28;3.22;;;;;;;;;;5033073;28;20026;-65
2021/10/26 11:59:04;;;;;;;9.00;3.25;;;;;;;;;;5064777;28;20022;-64
2021/10/26 12:01:38;;;;;;;7.60;3.03;;;;;;;;;;5033159;28;20030;-64
2021/10/26 12:04:06;;;;;;;7.18;3.10;;;;;;;;;;5032943;28;20045;-64
2021/10/26 12:06:35;;;;;;;8.15;2.72;;;;;;;;;;5065048;28;20025;-64
2021/10/26 12:09:04;;;;;;;7.38;3.13;;;;;;;;;;5033092;28;20108;-64
2021/10/26 12:11:32;;;;;;;6.03;3.13;;;;;;;;;;5032894;28;20057;-64
2021/10/26 12:14:12;;;;;;;6.55;2.78;;;;;;;;;;5064859;28;20029;-64
2021/10/26 12:16:38;;;;;;;6.72;2.90;;;;;;;;;;5032937;28;20033;-64
2021/10/26 12:19:04;;;;;;;6.45;3.42;;;;;;;;;;5031743;28;20030;-63
2021/10/26 12:21:31;;;;;;;6.75;3.03;;;;;;;;;;5032658;28;20029;-64
2021/10/26 12:23:57;;;;;;;10.65;3.75;;;;;;;;;;5032637;28;20026;-63
2021/10/26 12:26:23;;;;;;;6.50;3.20;;;;;;;;;;5032592;28;20017;-64
2021/10/26 12:28:59;;;;;;;4.95;2.63;;;;;;;;;;5032468;28;20018;-63
2021/10/26 12:31:26;;;;;;;5.63;3.10;;;;;;;;;;5032351;28;20060;-64
2021/10/26 12:34:01;;;;;;;6.43;3.40;;;;;;;;;;5032570;28;20013;-65
2021/10/26 12:36:28;;;;;;;7.22;3.03;;;;;;;;;;5051486;28;20041;-64
2021/10/26 12:39:05;;;;;;;17.13;3.58;;;;;;;;;;5052179;28;20053;-63
2021/10/26 12:41:39;;;;;;;6.70;3.03;;;;;;;;;;5052147;28;20017;-64
2021/10/26 12:44:07;;;;;;;6.50;3.30;;;;;;;;;;5052084;28;20044;-64
2021/10/26 12:46:35;;;;;;;6.28;3.20;;;;;;;;;;5052049;28;20017;-65
2021/10/26 12:49:15;;;;;;;5.63;2.70;;;;;;;;;;5052024;28;20041;-64
2021/10/26 12:51:42;;;;;;;7.53;2.92;;;;;;;;;;5052065;28;20029;-64
2021/10/26 12:54:13;;;;;;;5.10;2.88;;;;;;;;;;5052185;28;20059;-64
2021/10/26 12:56:51;;;;;;;7.15;2.90;;;;;;;;;;5052067;28;20126;-64
2021/10/26 12:59:18;;;;;;;5.82;2.92;;;;;;;;;;5052094;28;20518;-64
2021/10/26 13:01:49;;;;;;;5.22;3.03;;;;;;;;;;5052046;28;20384;-64
2021/10/26 13:04:22;;;;;;;7.00;2.97;;;;;;;;;;5051781;28;20032;-64
2021/10/26 13:06:55;;;;;;;6.07;3.00;;;;;;;;;;5050878;28;20372;-65
2021/10/26 13:09:21;;;;;;;;;;;;;;;;;;5051035;28;20048;-64
2021/10/26 13:11:47;;;;;;;8.43;3.05;;;;;;;;;;5051937;28;19978;-65
2021/10/26 13:14:14;;;;;;;4.85;2.60;;;;;;;;;;5051767;28;20020;-65
2021/10/26 13:16:50;;;;;;;9.57;3.10;;;;;;;;;;5051764;28;20037;-64
2021/10/26 13:19:26;;;;;;;6.50;3.10;;;;;;;;;;5051872;28;20032;-63
2021/10/26 13:21:53;;;;;;;5.78;3.05;;;;;;;;;;5051762;28;20460;-63
2021/10/26 13:24:22;;;;;;;5.47;2.67;;;;;;;;;;5051649;28;20075;-64
2021/10/26 13:26:49;;;;;;;6.47;2.97;;;;;;;;;;5051663;28;20021;-64
2021/10/26 13:29:16;;;;;;;6.78;3.50;;;;;;;;;;5050176;28;20041;-64
2021/10/26 13:31:42;;;;;;;5.18;2.58;;;;;;;;;;5054665;28;20456;-64
2021/10/26 13:34:09;;;;;;;7.13;3.13;;;;;;;;;;5055495;28;20024;-64
2021/10/26 13:36:36;;;;;;;6.18;2.58;;;;;;;;;;5035651;28;20026;-64
2021/10/26 13:39:05;;;;;;;5.80;2.80;;;;;;;;;;5035822;28;20026;-65
2021/10/26 13:41:31;;;;;;;4.88;2.88;;;;;;;;;;5038160;28;20030;-64
2021/10/26 13:43:57;;;;;;;6.55;3.30;;;;;;;;;;5035656;28;20033;-64
2021/10/26 13:46:23;;;;;;;6.43;2.95;;;;;;;;;;5035631;28;20013;-64
2021/10/26 13:48:50;;;;;;;5.93;2.85;;;;;;;;;;5035359;28;20033;-64
2021/10/26 13:51:17;;;;;;;7.68;2.75;;;;;;;;;;5035720;28;20082;-64
2021/10/26 13:53:44;;;;;;;5.32;2.85;;;;;;;;;;5035506;28;20073;-64
2021/10/26 13:56:10;;;;;;;6.05;2.60;;;;;;;;;;5035191;28;20038;-64
2021/10/26 13:58:36;;;;;;;5.15;2.55;;;;;;;;;;5035476;28;20079;-64
2021/10/26 14:01:15;;;;;;;6.70;2.90;;;;;;;;;;5035294;28;20052;-64
2021/10/26 14:03:41;;;;;;;7.00;3.30;;;;;;;;;;5035381;28;20509;-64
2021/10/26 14:06:08;;;;;;;5.43;2.30;;;;;;;;;;5035109;28;20017;-64
2021/10/26 14:08:34;;;;;;;6.15;2.70;;;;;;;;;;5035153;28;20044;-63
2021/10/26 14:11:03;;;;;;;5.47;2.65;;;;;;;;;;5035337;28;20017;-64
2021/10/26 14:13:30;;;;;;;7.53;2.90;;;;;;;;;;5035119;28;20022;-64
2021/10/26 14:15:56;;;;;;;5.97;3.05;;;;;;;;;;5034790;28;20029;-63
2021/10/26 14:18:22;;;;;;;7.70;2.60;;;;;;;;;;5034925;28;20495;-64
2021/10/26 14:20:53;;;;;;;5.35;2.80;;;;;;;;;;5035060;28;20078;-64
2021/10/26 14:23:19;;;;;;;6.47;3.20;;;;;;;;;;5034938;28;20025;-64
2021/10/26 14:25:48;;;;;;;7.13;2.72;;;;;;;;;;5034740;28;20044;-64
2021/10/26 14:28:14;;;;;;;6.35;2.78;;;;;;;;;;5034580;28;20104;-63
2021/10/26 14:30:41;;;;;;;4.95;2.50;;;;;;;;;;5034818;28;20017;-63
2021/10/26 14:33:08;;;;;;;6.10;2.70;;;;;;;;;;5034595;28;20017;-64
2021/10/26 14:35:40;;;;;;;5.30;2.75;;;;;;;;;;5034363;28;20152;-64
2021/10/26 14:56:47;;;;;;;5.65;2.90;;;;;;;;;;5034225;28;20033;-64
2021/10/26 14:59:13;;;;;;;8.45;3.30;;;;;;;;;;5032969;28;20022;-64
2021/10/26 15:01:41;;;;;;;6.30;3.00;;;;;;;;;;5034218;28;20087;-64
2021/10/26 15:04:07;;;;;;;5.88;2.70;;;;;;;;;;5034187;28;20056;-64
2021/10/26 15:06:37;;;;;;;5.20;2.58;;;;;;;;;;5034372;28;20025;-64